createdAt,value
2023-04-11T00:01:51.947Z,11.30
2023-04-11T00:04:23.033Z,11.40
2023-04-11T00:06:56.580Z,11.30
2023-04-11T00:09:27.091Z,11.40
2023-04-11T00:11:57.697Z,11.20
2023-04-11T00:14:29.008Z,11.30
2023-04-11T00:17:01.373Z,11.30
2023-04-11T00:19:33.613Z,11.20
2023-04-11T00:22:06.774Z,11.30
2023-04-11T00:24:37.186Z,11.30
2023-04-11T00:27:07.721Z,11.20
2023-04-11T00:29:39.505Z,11.30
2023-04-11T00:32:10.529Z,11.20
2023-04-11T00:34:41.481Z,11.20
2023-04-11T00:37:17.351Z,11.20
2023-04-11T00:40:00.450Z,11.20
2023-04-11T00:42:30.995Z,11.10
2023-04-11T00:45:02.809Z,11.20
2023-04-11T00:47:35.778Z,11.10
2023-04-11T00:50:06.674Z,11.10
2023-04-11T00:52:41.625Z,11.10
2023-04-11T00:55:13.650Z,11.10
2023-04-11T00:57:45.690Z,11.10
2023-04-11T01:00:17.410Z,11.10
2023-04-11T01:02:48.130Z,11.10
2023-04-11T01:05:20.355Z,11.10
2023-04-11T01:07:56.119Z,11.00
2023-04-11T01:10:29.144Z,10.90
2023-04-11T01:13:02.056Z,11.00
2023-04-11T01:15:32.575Z,10.90
2023-04-11T01:18:03.484Z,10.90
2023-04-11T01:20:34.809Z,11.00
2023-04-11T01:23:09.941Z,10.90
2023-04-11T01:25:43.117Z,10.90
2023-04-11T01:28:14.561Z,10.90
2023-04-11T01:30:45.036Z,10.90
2023-04-11T01:33:16.914Z,10.90
2023-04-11T01:35:47.562Z,10.90
2023-04-11T01:38:18.179Z,10.90
2023-04-11T01:40:51.390Z,10.60
2023-04-11T01:43:21.930Z,10.70
2023-04-11T01:45:54.350Z,10.80
2023-04-11T01:48:24.860Z,10.80
2023-04-11T01:50:56.056Z,10.70
2023-04-11T01:53:26.490Z,10.80
2023-04-11T01:55:59.481Z,10.80
2023-04-11T01:58:29.998Z,10.80
2023-04-11T02:01:00.658Z,10.80
2023-04-11T02:03:31.345Z,10.70
2023-04-11T02:06:01.849Z,10.70
2023-04-11T02:08:33.204Z,10.60
2023-04-11T02:11:08.303Z,10.70
2023-04-11T02:13:38.931Z,10.60
2023-04-11T02:16:11.761Z,10.60
2023-04-11T02:18:42.894Z,10.50
2023-04-11T02:21:13.617Z,10.60
2023-04-11T02:23:44.046Z,10.60
2023-04-11T02:26:18.892Z,10.60
2023-04-11T02:28:49.372Z,10.60
2023-04-11T02:31:19.816Z,10.50
2023-04-11T02:33:50.269Z,10.60
2023-04-11T02:36:22.335Z,10.60
2023-04-11T02:38:52.794Z,10.50
2023-04-11T02:41:25.959Z,10.60
2023-04-11T02:43:57.608Z,10.60
2023-04-11T02:46:28.290Z,10.50
2023-04-11T02:48:58.905Z,10.50
2023-04-11T02:51:29.490Z,10.40
2023-04-11T02:53:59.959Z,10.50
2023-04-11T02:56:35.186Z,10.50
2023-04-11T02:59:05.769Z,10.50
2023-04-11T03:01:38.046Z,10.50
2023-04-11T03:04:09.027Z,10.60
2023-04-11T03:06:49.149Z,10.40
2023-04-11T03:09:19.747Z,10.40
2023-04-11T03:11:53.621Z,10.40
2023-04-11T03:14:24.061Z,10.40
2023-04-11T03:16:54.448Z,10.40
2023-04-11T03:19:25.119Z,10.40
2023-04-11T03:21:56.293Z,10.30
2023-04-11T03:24:26.751Z,10.30
2023-04-11T03:27:02.123Z,10.20
2023-04-11T03:29:32.887Z,10.20
2023-04-11T03:32:16.116Z,10.30
2023-04-11T03:34:46.521Z,10.30
2023-04-11T03:37:17.820Z,10.30
2023-04-11T03:39:48.243Z,10.20
2023-04-11T03:42:21.633Z,10.10
2023-04-11T03:44:57.298Z,10.10
2023-04-11T03:47:29.120Z,10.10
2023-04-11T03:50:01.423Z,10.10
2023-04-11T03:52:34.389Z,10.10
2023-04-11T03:55:06.402Z,10.00
2023-04-11T03:57:39.681Z,10.10
2023-04-11T04:00:11.932Z,10.00
2023-04-11T04:02:59.763Z,10.00
2023-04-11T04:05:31.256Z,10.00
2023-04-11T04:08:02.947Z,10.00
2023-04-11T04:10:49.915Z,10.00
2023-04-11T04:13:23.005Z,10.00
2023-04-11T04:16:03.759Z,9.90
2023-04-11T04:18:36.497Z,10.00
2023-04-11T04:21:07.476Z,10.00
2023-04-11T04:23:47.719Z,9.90
2023-04-11T04:26:46.257Z,9.90
2023-04-11T04:29:38.694Z,10.00
2023-04-11T04:32:13.575Z,9.90
2023-04-11T04:34:55.338Z,9.90
2023-04-11T04:37:30.626Z,10.00
2023-04-11T04:40:14.228Z,9.90
2023-04-11T04:42:58.948Z,10.00
2023-04-11T04:46:01.120Z,9.90
2023-04-11T04:48:38.621Z,9.90
2023-04-11T04:51:11.568Z,9.80
2023-04-11T04:53:43.312Z,9.80
2023-04-11T04:56:14.962Z,9.90
2023-04-11T04:58:48.831Z,9.90
2023-04-11T05:01:27.090Z,9.80
2023-04-11T05:04:02.486Z,9.80
2023-04-11T05:07:06.657Z,9.70
2023-04-11T05:09:39.232Z,9.80
2023-04-11T05:12:27.417Z,9.80
2023-04-11T05:15:02.536Z,9.80
2023-04-11T05:17:37.517Z,9.80
2023-04-11T05:20:09.790Z,9.70
2023-04-11T05:22:42.598Z,9.70
2023-04-11T05:25:13.366Z,9.70
2023-04-11T05:27:45.355Z,9.60
2023-04-11T05:30:17.489Z,9.70
2023-04-11T05:32:53.050Z,9.70
2023-04-11T05:35:24.485Z,9.70
2023-04-11T05:37:58.502Z,9.60
2023-04-11T05:40:28.938Z,9.70
2023-04-11T05:42:59.332Z,9.70
2023-04-11T05:45:29.816Z,9.60
2023-04-11T05:48:04.433Z,9.60
2023-04-11T05:50:35.168Z,9.70
2023-04-11T05:53:06.288Z,9.70
2023-04-11T05:55:36.892Z,9.70
2023-04-11T05:58:07.424Z,9.70
2023-04-11T06:00:38.518Z,9.70
2023-04-11T06:03:11.615Z,9.80
2023-04-11T06:05:42.356Z,9.80
2023-04-11T06:08:13.485Z,9.80
2023-04-11T06:10:44.046Z,9.70
2023-04-11T06:13:14.667Z,9.70
2023-04-11T06:15:45.123Z,9.80
2023-04-11T06:18:21.128Z,9.70
2023-04-11T06:20:51.758Z,9.70
2023-04-11T06:23:22.151Z,9.70
2023-04-11T06:25:53.212Z,9.70
2023-04-11T06:28:23.530Z,9.80
2023-04-11T06:30:53.994Z,9.80
2023-04-11T06:33:27.056Z,9.80
2023-04-11T06:35:57.542Z,9.80
2023-04-11T06:38:27.881Z,9.80
2023-04-11T06:40:58.633Z,9.80
2023-04-11T06:43:29.094Z,9.90
2023-04-11T06:45:59.550Z,9.90
2023-04-11T06:48:32.693Z,10.00
2023-04-11T06:51:03.246Z,10.10
2023-04-11T06:53:33.683Z,9.90
2023-04-11T06:56:05.015Z,10.00
2023-04-11T06:58:35.444Z,10.10
2023-04-11T07:01:06.585Z,10.10
2023-04-11T07:03:40.548Z,10.10
2023-04-11T07:06:12.128Z,10.10
2023-04-11T07:08:42.620Z,10.10
2023-04-11T07:11:13.070Z,10.10
2023-04-11T07:13:43.578Z,10.20
2023-04-11T07:16:14.178Z,10.20
2023-04-11T07:18:47.278Z,10.30
2023-04-11T07:21:18.548Z,10.20
2023-04-11T07:23:49.971Z,10.30
2023-04-11T07:26:20.383Z,10.30
2023-04-11T07:28:51.421Z,10.30
2023-04-11T07:31:23.026Z,10.30
2023-04-11T07:33:56.269Z,10.30
2023-04-11T07:36:27.070Z,10.40
2023-04-11T07:38:57.939Z,10.50
2023-04-11T07:41:28.417Z,10.50
2023-04-11T07:43:58.834Z,10.50
2023-04-11T07:46:29.453Z,10.60
2023-04-11T07:49:02.549Z,10.60
2023-04-11T07:51:33.417Z,10.60
2023-04-11T07:54:04.101Z,10.60
2023-04-11T07:56:34.500Z,10.70
2023-04-11T07:59:04.952Z,10.70
2023-04-11T08:01:35.434Z,10.70
2023-04-11T08:04:09.130Z,10.60
2023-04-11T08:06:39.830Z,10.80
2023-04-11T08:09:11.187Z,10.90
2023-04-11T08:11:42.000Z,10.90
2023-04-11T08:14:12.418Z,10.90
2023-04-11T08:16:43.550Z,10.90
2023-04-11T08:19:17.394Z,10.90
2023-04-11T08:21:47.942Z,10.90
2023-04-11T08:24:18.322Z,11.00
2023-04-11T08:26:48.824Z,11.10
2023-04-11T08:29:19.593Z,11.10
2023-04-11T08:31:50.325Z,11.20
2023-04-11T08:34:23.387Z,11.20
2023-04-11T08:36:54.188Z,11.20
2023-04-11T08:39:24.602Z,11.30
2023-04-11T08:41:55.049Z,11.20
2023-04-11T08:44:25.900Z,11.20
2023-04-11T08:46:56.350Z,11.30
2023-04-11T08:49:29.462Z,11.40
2023-04-11T08:52:00.224Z,11.40
2023-04-11T08:54:30.697Z,11.30
2023-04-11T08:57:01.658Z,11.50
2023-04-11T08:59:32.130Z,11.50
2023-04-11T09:02:10.204Z,11.50
2023-04-11T09:04:47.578Z,11.60
2023-04-11T09:07:19.403Z,11.60
2023-04-11T09:09:49.827Z,11.80
2023-04-11T09:12:25.148Z,11.70
2023-04-11T09:14:55.607Z,11.50
2023-04-11T09:17:26.241Z,11.70
2023-04-11T09:19:59.328Z,11.80
2023-04-11T09:22:39.664Z,11.80
2023-04-11T09:25:11.957Z,12.00
2023-04-11T09:27:42.417Z,12.10
2023-04-11T09:30:24.454Z,12.10
2023-04-11T09:32:57.087Z,12.20
2023-04-11T09:35:30.438Z,12.30
2023-04-11T09:38:03.845Z,12.30
2023-04-11T09:40:44.545Z,12.20
2023-04-11T09:43:15.007Z,12.10
2023-04-11T09:45:54.043Z,12.20
2023-04-11T09:48:39.530Z,12.20
2023-04-11T09:51:34.177Z,12.40
2023-04-11T09:54:06.731Z,12.40
2023-04-11T09:56:37.580Z,12.30
2023-04-11T09:59:08.137Z,12.20
2023-04-11T10:01:40.298Z,12.40
2023-04-11T10:04:11.196Z,12.50
2023-04-11T10:06:55.689Z,12.70
2023-04-11T10:09:27.979Z,12.80
2023-04-11T10:11:58.669Z,12.90
2023-04-11T10:14:44.819Z,13.00
2023-04-11T10:17:22.719Z,12.80
2023-04-11T10:19:58.148Z,12.80
2023-04-11T10:23:10.620Z,12.60
2023-04-11T10:26:02.059Z,12.90
2023-04-11T10:28:38.542Z,12.80
2023-04-11T10:31:13.545Z,12.80
2023-04-11T10:34:15.379Z,12.80
2023-04-11T10:37:08.161Z,12.90
2023-04-11T10:40:10.483Z,12.90
2023-04-11T10:42:44.624Z,12.80
2023-04-11T10:45:29.519Z,12.60
2023-04-11T10:48:12.173Z,12.50
2023-04-11T10:50:45.121Z,12.50
2023-04-11T10:53:37.529Z,12.40
2023-04-11T10:56:08.836Z,12.50
2023-04-11T10:58:43.008Z,12.50
2023-04-11T11:01:32.165Z,12.60
2023-04-11T11:04:13.967Z,12.60
2023-04-11T11:06:50.932Z,12.70
2023-04-11T11:09:28.812Z,13.10
2023-04-11T11:12:09.590Z,13.00
2023-04-11T11:14:43.808Z,12.90
2023-04-11T11:17:16.052Z,13.00
2023-04-11T11:19:48.467Z,13.20
2023-04-11T11:22:25.863Z,13.50
2023-04-11T11:24:56.807Z,13.80
2023-04-11T11:27:28.705Z,13.90
2023-04-11T11:30:12.709Z,13.80
2023-04-11T11:32:43.187Z,13.80
2023-04-11T11:35:17.022Z,13.90
2023-04-11T11:37:47.618Z,14.00
2023-04-11T11:40:18.114Z,14.00
2023-04-11T11:42:48.692Z,14.00
2023-04-11T11:45:23.529Z,14.20
2023-04-11T11:47:54.187Z,14.40
2023-04-11T11:50:29.695Z,14.50
2023-04-11T11:53:15.982Z,14.20
2023-04-11T11:55:46.759Z,14.20
2023-04-11T11:58:19.273Z,14.50
2023-04-11T12:00:55.369Z,14.70
2023-04-11T12:03:29.945Z,14.50
2023-04-11T12:06:00.715Z,14.70
2023-04-11T12:08:36.740Z,14.80
2023-04-11T12:11:15.639Z,14.90
2023-04-11T12:13:46.061Z,14.70
2023-04-11T12:16:19.224Z,14.60
2023-04-11T12:18:49.637Z,14.60
2023-04-11T12:21:20.109Z,14.60
2023-04-11T12:23:50.573Z,14.90
2023-04-11T12:26:22.054Z,15.20
2023-04-11T12:28:52.754Z,15.00
2023-04-11T12:31:27.400Z,15.00
2023-04-11T12:33:58.266Z,14.90
2023-04-11T12:36:29.389Z,14.90
2023-04-11T12:38:59.784Z,14.80
2023-04-11T12:41:32.580Z,14.80
2023-04-11T12:44:04.272Z,15.10
2023-04-11T12:46:37.919Z,15.00
2023-04-11T12:49:08.324Z,15.00
2023-04-11T12:51:38.741Z,14.80
2023-04-11T12:54:09.139Z,14.70
2023-04-11T12:56:39.609Z,14.60
2023-04-11T12:59:09.986Z,14.50
2023-04-11T13:01:43.855Z,14.50
2023-04-11T13:04:14.529Z,14.40
2023-04-11T13:06:45.239Z,14.30
2023-04-11T13:09:15.639Z,14.40
2023-04-11T13:11:46.037Z,14.60
2023-04-11T13:14:16.632Z,14.70
2023-04-11T13:16:49.956Z,14.80
2023-04-11T13:19:20.559Z,14.80
2023-04-11T13:21:51.439Z,15.00
2023-04-11T13:24:21.962Z,15.20
2023-04-11T13:26:52.396Z,15.30
2023-04-11T13:29:22.775Z,15.40
2023-04-11T13:31:55.994Z,15.20
2023-04-11T13:34:26.457Z,15.40
2023-04-11T13:36:57.002Z,15.40
2023-04-11T13:39:27.495Z,15.60
2023-04-11T13:41:57.934Z,15.40
2023-04-11T13:44:28.372Z,15.50
2023-04-11T13:47:03.122Z,15.50
2023-04-11T13:49:33.683Z,15.50
2023-04-11T13:52:04.112Z,15.90
2023-04-11T13:54:34.514Z,15.60
2023-04-11T13:57:08.032Z,15.50
2023-04-11T13:59:38.510Z,15.60
2023-04-11T14:02:12.028Z,15.80
2023-04-11T14:04:42.669Z,15.90
2023-04-11T14:07:13.142Z,15.80
2023-04-11T14:09:43.591Z,15.90
2023-04-11T14:12:13.977Z,15.90
2023-04-11T14:14:44.365Z,16.00
2023-04-11T14:17:17.400Z,16.10
2023-04-11T14:19:47.819Z,16.10
2023-04-11T14:22:18.673Z,16.30
2023-04-11T14:24:49.199Z,16.20
2023-04-11T14:27:19.726Z,16.00
2023-04-11T14:29:50.794Z,15.90
2023-04-11T14:32:24.697Z,15.70
2023-04-11T14:34:55.851Z,15.60
2023-04-11T14:37:26.977Z,15.50
2023-04-11T14:39:57.383Z,15.50
2023-04-11T14:42:27.774Z,15.50
2023-04-11T14:44:58.214Z,15.60
2023-04-11T14:47:31.379Z,15.60
2023-04-11T14:50:01.961Z,15.60
2023-04-11T14:52:32.649Z,15.50
2023-04-11T14:55:03.020Z,15.50
2023-04-11T14:57:48.229Z,15.60
2023-04-11T15:00:24.950Z,15.70
2023-04-11T15:02:59.758Z,15.70
2023-04-11T15:05:30.354Z,15.70
2023-04-11T15:08:01.209Z,15.70
2023-04-11T15:10:31.607Z,15.60
2023-04-11T15:13:01.992Z,15.70
2023-04-11T15:15:32.415Z,15.70
2023-04-11T15:18:23.779Z,15.70
2023-04-11T15:20:54.569Z,15.70
2023-04-11T15:23:25.280Z,15.60
2023-04-11T15:25:57.249Z,15.50
2023-04-11T15:28:28.984Z,15.50
2023-04-11T15:30:59.522Z,15.30
2023-04-11T15:33:33.324Z,15.30
2023-04-11T15:36:03.919Z,15.40
2023-04-11T15:38:34.331Z,15.40
2023-04-11T15:41:04.800Z,15.40
2023-04-11T15:43:35.282Z,15.50
2023-04-11T15:46:06.855Z,15.40
2023-04-11T15:48:39.952Z,15.50
2023-04-11T15:51:14.678Z,15.50
2023-04-11T15:53:57.993Z,15.60
2023-04-11T15:56:41.666Z,15.60
2023-04-11T16:02:16.163Z,15.40
2023-04-11T16:04:52.852Z,15.40
2023-04-11T16:07:24.549Z,15.40
2023-04-11T16:09:54.881Z,15.40
2023-04-11T16:12:25.366Z,15.40
2023-04-11T16:14:55.836Z,15.40
2023-04-11T16:17:26.449Z,15.30
2023-04-11T16:19:59.534Z,15.40
2023-04-11T16:22:30.347Z,15.40
2023-04-11T16:25:03.598Z,15.40
2023-04-11T16:27:33.979Z,15.30
2023-04-11T16:30:06.088Z,15.20
2023-04-11T16:32:36.524Z,15.20
2023-04-11T16:35:10.507Z,15.10
2023-04-11T16:37:40.948Z,15.10
2023-04-11T16:40:12.491Z,15.10
2023-04-11T16:42:42.994Z,15.10
2023-04-11T16:45:14.436Z,15.00
2023-04-11T16:47:44.917Z,15.10
2023-04-11T16:50:18.234Z,15.10
2023-04-11T16:52:48.641Z,14.90
2023-04-11T16:55:19.203Z,14.70
2023-04-11T16:57:49.598Z,14.50
2023-04-11T17:00:21.090Z,14.40
2023-04-11T17:02:51.874Z,14.40
2023-04-11T17:05:25.089Z,14.50
2023-04-11T17:07:55.487Z,14.40
2023-04-11T17:10:25.913Z,14.40
2023-04-11T17:12:56.561Z,14.40
2023-04-11T17:15:27.264Z,14.30
2023-04-11T17:17:57.708Z,14.20
2023-04-11T17:20:30.812Z,14.30
2023-04-11T17:23:01.213Z,14.20
2023-04-11T17:25:31.892Z,14.10
2023-04-11T17:28:02.832Z,14.20
2023-04-11T17:30:34.271Z,14.20
2023-04-11T17:33:04.849Z,14.10
2023-04-11T17:35:37.970Z,14.20
2023-04-11T17:38:08.343Z,14.20
2023-04-11T17:40:38.695Z,14.00
2023-04-11T17:43:09.080Z,13.90
2023-04-11T17:45:39.828Z,13.90
2023-04-11T17:48:10.185Z,13.80
2023-04-11T17:50:46.450Z,13.90
2023-04-11T17:53:16.866Z,13.90
2023-04-11T17:55:50.362Z,13.90
2023-04-11T17:58:20.766Z,13.80
2023-04-11T18:00:56.621Z,13.90
2023-04-11T18:03:28.576Z,13.90
2023-04-11T18:06:01.877Z,13.90
2023-04-11T18:08:49.152Z,13.90
2023-04-11T18:11:21.248Z,13.90
2023-04-11T18:13:51.706Z,13.90
2023-04-11T18:16:22.405Z,13.90
2023-04-11T18:18:52.798Z,13.90
2023-04-11T18:21:26.105Z,13.80
2023-04-11T18:23:56.646Z,13.90
2023-04-11T18:26:27.506Z,13.80
2023-04-11T18:28:57.910Z,13.80
2023-04-11T18:31:28.577Z,13.80
2023-04-11T18:33:59.440Z,13.80
2023-04-11T18:36:33.684Z,13.70
2023-04-11T18:39:04.192Z,13.70
2023-04-11T18:41:34.573Z,13.70
2023-04-11T18:44:06.038Z,13.70
2023-04-11T18:46:38.275Z,13.70
2023-04-11T18:49:09.344Z,13.60
2023-04-11T18:51:42.813Z,13.60
2023-04-11T18:54:13.138Z,13.60
2023-04-11T18:56:46.058Z,13.50
2023-04-11T18:59:18.755Z,13.50
2023-04-11T19:01:49.826Z,13.50
2023-04-11T19:04:20.783Z,13.50
2023-04-11T19:06:54.240Z,13.50
2023-04-11T19:09:24.653Z,13.50
2023-04-11T19:11:55.070Z,13.50
2023-04-11T19:14:25.558Z,13.50
2023-04-11T19:16:56.754Z,13.50
2023-04-11T19:19:27.199Z,13.50
2023-04-11T19:22:00.286Z,13.40
2023-04-11T19:24:31.027Z,13.40
2023-04-11T19:27:01.841Z,13.40
2023-04-11T19:29:32.181Z,13.40
2023-04-11T19:32:02.626Z,13.40
2023-04-11T19:34:35.206Z,13.40
2023-04-11T19:37:08.581Z,13.40
2023-04-11T19:39:39.264Z,13.40
2023-04-11T19:42:10.537Z,13.30
2023-04-11T19:44:40.922Z,13.40
2023-04-11T19:47:11.279Z,13.40
2023-04-11T19:49:41.658Z,13.40
2023-04-11T19:52:14.750Z,13.40
2023-04-11T19:54:45.303Z,13.40
2023-04-11T19:57:15.939Z,13.50
2023-04-11T19:59:46.748Z,13.40
2023-04-11T20:02:17.162Z,13.30
2023-04-11T20:04:48.428Z,13.30
2023-04-11T20:07:21.411Z,13.40
2023-04-11T20:09:52.099Z,13.40
2023-04-11T20:12:22.471Z,13.40
2023-04-11T20:14:52.867Z,13.30
2023-04-11T20:17:23.254Z,13.30
2023-04-11T20:19:55.944Z,13.30
2023-04-11T20:22:28.993Z,13.30
2023-04-11T20:24:59.363Z,13.40
2023-04-11T20:27:29.718Z,13.30
2023-04-11T20:30:00.912Z,13.30
2023-04-11T20:32:31.286Z,13.20
2023-04-11T20:35:01.901Z,13.20
2023-04-11T20:37:37.372Z,13.20
2023-04-11T20:40:10.515Z,13.20
2023-04-11T20:42:43.017Z,13.20
2023-04-11T20:45:16.014Z,13.20
2023-04-11T20:47:49.858Z,13.10
2023-04-11T20:50:21.896Z,13.10
2023-04-11T20:52:54.956Z,13.10
2023-04-11T20:55:25.474Z,13.00
2023-04-11T20:57:56.111Z,12.90
2023-04-11T21:00:26.571Z,12.80
2023-04-11T21:02:57.023Z,12.90
2023-04-11T21:05:27.802Z,12.90
2023-04-11T21:08:00.805Z,12.90
2023-04-11T21:10:31.270Z,12.80
2023-04-11T21:13:01.640Z,12.70
2023-04-11T21:15:32.117Z,12.70
2023-04-11T21:18:03.508Z,12.70
2023-04-11T21:20:35.503Z,12.70
2023-04-11T21:23:08.624Z,12.70
2023-04-11T21:25:40.166Z,12.70
2023-04-11T21:28:10.539Z,12.60
2023-04-11T21:30:42.520Z,12.60
2023-04-11T21:33:12.949Z,12.50
2023-04-11T21:35:43.407Z,12.50
2023-04-11T21:38:16.657Z,12.50
2023-04-11T21:40:47.131Z,12.50
2023-04-11T21:43:17.464Z,12.50
2023-04-11T21:45:47.855Z,12.50
2023-04-11T21:48:18.267Z,12.40
2023-04-11T21:50:48.898Z,12.40
2023-04-11T21:53:21.780Z,12.40
2023-04-11T21:55:52.202Z,12.30
2023-04-11T21:58:28.990Z,12.30
2023-04-11T22:01:00.430Z,12.30
2023-04-11T22:03:31.156Z,12.40
2023-04-11T22:06:01.858Z,12.20
2023-04-11T22:08:38.507Z,12.30
2023-04-11T22:11:10.723Z,12.20
2023-04-11T22:13:41.288Z,12.20
2023-04-11T22:16:12.092Z,12.10
2023-04-11T22:18:50.111Z,12.10
2023-04-11T22:21:26.935Z,12.10
2023-04-11T22:24:02.514Z,12.10
2023-04-11T22:26:34.597Z,12.10
2023-04-11T22:29:06.716Z,12.00
2023-04-11T22:31:39.046Z,12.00
2023-04-11T22:34:10.055Z,12.00
2023-04-11T22:36:40.484Z,12.00
2023-04-11T22:39:13.492Z,12.00
2023-04-11T22:41:50.696Z,11.90
2023-04-11T22:44:21.397Z,11.90
2023-04-11T22:47:06.522Z,11.90
2023-04-11T22:49:42.244Z,11.90
2023-04-11T22:52:15.340Z,11.80
2023-04-11T22:54:50.158Z,11.80
2023-04-11T22:57:20.811Z,11.90
2023-04-11T22:59:51.380Z,11.80
2023-04-11T23:02:23.410Z,11.80
2023-04-11T23:04:54.087Z,11.80
2023-04-11T23:07:26.682Z,11.80
2023-04-11T23:10:02.894Z,11.80
2023-04-11T23:12:33.357Z,11.60
2023-04-11T23:15:04.420Z,11.60
2023-04-11T23:17:34.921Z,11.70
2023-04-11T23:20:13.115Z,11.70
2023-04-11T23:22:44.351Z,11.70
2023-04-11T23:25:17.907Z,11.70
2023-04-11T23:27:48.482Z,11.60
2023-04-11T23:30:20.358Z,11.60
2023-04-11T23:32:50.858Z,11.50
2023-04-11T23:35:21.354Z,11.60
2023-04-11T23:37:52.201Z,11.60
2023-04-11T23:40:25.563Z,11.50
2023-04-11T23:42:55.977Z,11.50
2023-04-11T23:45:26.498Z,11.50
2023-04-11T23:47:57.627Z,11.50
2023-04-11T23:50:28.502Z,11.50
2023-04-11T23:52:58.982Z,11.50
2023-04-11T23:55:32.528Z,11.40
2023-04-11T23:58:02.907Z,11.50
